Time;durP1;ratioP1;P1;durP2;ratioP2;P2;SDS_P1;SDS_P2;PMS_P1;PMS_P2;Temp;Humidity;BMP_temperature;BMP_pressure;BME280_temperature;BME280_humidity;BME280_pressure;Samples;Min_cycle;Max_cycle;Signal;HPM_P1;HPM_P2
2020/09/02 00:00:13;;;;;;;10.4;9.4;;;;;;;12.49;100;95180.77;;;;
2020/09/02 00:01:13;;;;;;;10.4;9.4;;;;;;;12.49;100;95180.77;;;;
2020/09/02 00:02:14;;;;;;;10.4;9.4;;;;;;;12.49;100;95180.77;;;;
2020/09/02 00:03:14;;;;;;;10.4;9.4;;;;;;;12.49;100;95180.77;;;;
2020/09/02 00:04:15;;;;;;;10.4;9.4;;;;;;;12.49;100;95180.77;;;;
2020/09/02 00:05:15;;;;;;;10.4;9.4;;;;;;;12.49;100;95180.77;;;;
2020/09/02 00:06:16;;;;;;;10.4;9.4;;;;;;;12.49;100;95180.77;;;;
2020/09/02 00:07:16;;;;;;;10.4;9.4;;;;;;;12.49;100;95180.77;;;;
2020/09/02 00:08:16;;;;;;;11;10;;;;;;;12.36;100;95183.42;;;;
2020/09/02 00:09:17;;;;;;;11;10;;;;;;;12.36;100;95183.42;;;;
2020/09/02 00:10:17;;;;;;;11;10;;;;;;;12.36;100;95183.42;;;;
2020/09/02 00:11:18;;;;;;;11;10;;;;;;;12.36;100;95183.42;;;;
2020/09/02 00:12:18;;;;;;;11;10;;;;;;;12.36;100;95183.42;;;;
2020/09/02 00:13:19;;;;;;;11;10;;;;;;;12.36;100;95183.42;;;;
2020/09/02 00:14:19;;;;;;;11;10;;;;;;;12.36;100;95183.42;;;;
2020/09/02 00:15:20;;;;;;;11;10;;;;;;;12.36;100;95183.42;;;;
2020/09/02 00:16:20;;;;;;;11;10;;;;;;;12.36;100;95183.42;;;;
2020/09/02 00:17:21;;;;;;;11;10;;;;;;;12.36;100;95183.42;;;;
2020/09/02 00:18:21;;;;;;;11;10;;;;;;;12.36;100;95183.42;;;;
2020/09/02 00:19:22;;;;;;;11.95;10.75;;;;;;;12.22;100;95183.9;;;;
2020/09/02 00:20:25;;;;;;;11.95;10.75;;;;;;;12.22;100;95183.9;;;;
2020/09/02 00:21:25;;;;;;;11.95;10.75;;;;;;;12.22;100;95183.9;;;;
2020/09/02 00:22:26;;;;;;;11.95;10.75;;;;;;;12.22;100;95183.9;;;;
2020/09/02 00:23:26;;;;;;;11.95;10.75;;;;;;;12.22;100;95183.9;;;;
2020/09/02 00:24:27;;;;;;;11.95;10.75;;;;;;;12.22;100;95183.9;;;;
2020/09/02 00:25:27;;;;;;;11.95;10.75;;;;;;;12.22;100;95183.9;;;;
2020/09/02 00:26:28;;;;;;;11.95;10.75;;;;;;;12.22;100;95183.9;;;;
2020/09/02 00:27:28;;;;;;;11.95;10.75;;;;;;;12.22;100;95183.9;;;;
2020/09/02 00:28:29;;;;;;;11.95;10.75;;;;;;;12.22;100;95183.9;;;;
2020/09/02 00:29:29;;;;;;;11.95;10.75;;;;;;;12.22;100;95183.9;;;;
2020/09/02 00:30:30;;;;;;;11.5;10.4;;;;;;;12.14;100;95198.25;;;;
2020/09/02 00:31:30;;;;;;;11.5;10.4;;;;;;;12.14;100;95198.25;;;;
2020/09/02 00:32:31;;;;;;;11.5;10.4;;;;;;;12.14;100;95198.25;;;;
2020/09/02 00:33:31;;;;;;;11.5;10.4;;;;;;;12.14;100;95198.25;;;;
2020/09/02 00:34:32;;;;;;;11.5;10.4;;;;;;;12.14;100;95198.25;;;;
2020/09/02 00:35:32;;;;;;;11.5;10.4;;;;;;;12.14;100;95198.25;;;;
2020/09/02 00:36:32;;;;;;;11.5;10.4;;;;;;;12.14;100;95198.25;;;;
2020/09/02 00:37:33;;;;;;;11.5;10.4;;;;;;;12.14;100;95198.25;;;;
2020/09/02 00:38:33;;;;;;;11.5;10.4;;;;;;;12.14;100;95198.25;;;;
2020/09/02 00:39:34;;;;;;;11.5;10.4;;;;;;;12.14;100;95198.25;;;;
2020/09/02 00:40:34;;;;;;;11.25;10.25;;;;;;;12.04;100;95201.34;;;;
2020/09/02 00:41:35;;;;;;;11.25;10.25;;;;;;;12.04;100;95201.34;;;;
2020/09/02 00:42:35;;;;;;;11.25;10.25;;;;;;;12.04;100;95201.34;;;;
2020/09/02 00:43:37;;;;;;;11.25;10.25;;;;;;;12.04;100;95201.34;;;;
2020/09/02 00:44:37;;;;;;;11.25;10.25;;;;;;;12.04;100;95201.34;;;;
2020/09/02 00:45:38;;;;;;;11.25;10.25;;;;;;;12.04;100;95201.34;;;;
2020/09/02 00:46:38;;;;;;;11.25;10.25;;;;;;;12.04;100;95201.34;;;;
2020/09/02 00:47:39;;;;;;;11.25;10.25;;;;;;;12.04;100;95201.34;;;;
2020/09/02 00:48:39;;;;;;;11.25;10.25;;;;;;;12.04;100;95201.34;;;;
2020/09/02 00:49:40;;;;;;;11.25;10.25;;;;;;;12.04;100;95201.34;;;;
2020/09/02 00:50:40;;;;;;;11.25;10.25;;;;;;;12.04;100;95201.34;;;;
2020/09/02 00:51:41;;;;;;;9.65;8.75;;;;;;;12.03;100;95202.42;;;;
2020/09/02 00:52:41;;;;;;;9.65;8.75;;;;;;;12.03;100;95202.42;;;;
2020/09/02 00:53:42;;;;;;;9.65;8.75;;;;;;;12.03;100;95202.42;;;;
2020/09/02 00:54:43;;;;;;;9.65;8.75;;;;;;;12.03;100;95202.42;;;;
2020/09/02 00:55:43;;;;;;;9.65;8.75;;;;;;;12.03;100;95202.42;;;;
2020/09/02 00:58:19;;;;;;;9.65;8.75;;;;;;;12.03;100;95202.42;;;;
2020/09/02 00:59:35;;;;;;;9.65;8.75;;;;;;;12.03;100;95202.42;;;;
2020/09/02 01:04:07;;;;;;;12.05;10.85;;;;;;;12.13;100;95205.27;;;;
2020/09/02 01:05:07;;;;;;;12.05;10.85;;;;;;;12.13;100;95205.27;;;;
2020/09/02 01:06:08;;;;;;;12.05;10.85;;;;;;;12.13;100;95205.27;;;;
2020/09/02 01:07:08;;;;;;;12.05;10.85;;;;;;;12.13;100;95205.27;;;;
2020/09/02 01:08:09;;;;;;;12.05;10.85;;;;;;;12.13;100;95205.27;;;;
2020/09/02 01:09:09;;;;;;;12.05;10.85;;;;;;;12.13;100;95205.27;;;;
2020/09/02 01:10:10;;;;;;;12.05;10.85;;;;;;;12.13;100;95205.27;;;;
2020/09/02 01:11:11;;;;;;;12.05;10.85;;;;;;;12.13;100;95205.27;;;;
2020/09/02 01:12:12;;;;;;;12.05;10.85;;;;;;;12.13;100;95205.27;;;;
2020/09/02 01:13:12;;;;;;;12;10.95;;;;;;;12.15;100;95213.03;;;;
2020/09/02 01:14:13;;;;;;;12;10.95;;;;;;;12.15;100;95213.03;;;;
2020/09/02 01:15:13;;;;;;;12;10.95;;;;;;;12.15;100;95213.03;;;;
2020/09/02 01:16:40;;;;;;;12;10.95;;;;;;;12.15;100;95213.03;;;;
2020/09/02 01:17:41;;;;;;;12;10.95;;;;;;;12.15;100;95213.03;;;;
2020/09/02 01:18:41;;;;;;;12;10.95;;;;;;;12.15;100;95213.03;;;;
2020/09/02 01:19:42;;;;;;;12;10.95;;;;;;;12.15;100;95213.03;;;;
2020/09/02 01:20:42;;;;;;;12;10.95;;;;;;;12.15;100;95213.03;;;;
2020/09/02 01:21:43;;;;;;;12;10.95;;;;;;;12.15;100;95213.03;;;;
2020/09/02 01:22:44;;;;;;;12;10.95;;;;;;;12.15;100;95213.03;;;;
2020/09/02 01:23:44;;;;;;;10.95;9.849999;;;;;;;12.15;100;95205.44;;;;
2020/09/02 01:24:45;;;;;;;10.95;9.849999;;;;;;;12.15;100;95205.44;;;;
2020/09/02 01:25:46;;;;;;;10.95;9.849999;;;;;;;12.15;100;95205.44;;;;
2020/09/02 01:26:46;;;;;;;10.95;9.849999;;;;;;;12.15;100;95205.44;;;;
2020/09/02 01:27:47;;;;;;;10.95;9.849999;;;;;;;12.15;100;95205.44;;;;
2020/09/02 01:28:47;;;;;;;10.95;9.849999;;;;;;;12.15;100;95205.44;;;;
2020/09/02 01:29:48;;;;;;;10.95;9.849999;;;;;;;12.15;100;95205.44;;;;
2020/09/02 01:30:48;;;;;;;10.95;9.849999;;;;;;;12.15;100;95205.44;;;;
2020/09/02 01:31:49;;;;;;;10.95;9.849999;;;;;;;12.15;100;95205.44;;;;
2020/09/02 01:32:49;;;;;;;10.95;9.849999;;;;;;;12.15;100;95205.44;;;;
2020/09/02 01:33:50;;;;;;;10.4;9.4;;;;;;;12.14;100;95206.93;;;;
2020/09/02 01:34:50;;;;;;;10.4;9.4;;;;;;;12.14;100;95206.93;;;;
2020/09/02 01:35:51;;;;;;;10.4;9.4;;;;;;;12.14;100;95206.93;;;;
2020/09/02 01:36:51;;;;;;;10.4;9.4;;;;;;;12.14;100;95206.93;;;;
2020/09/02 01:37:52;;;;;;;10.4;9.4;;;;;;;12.14;100;95206.93;;;;
2020/09/02 01:38:52;;;;;;;10.4;9.4;;;;;;;12.14;100;95206.93;;;;
2020/09/02 01:39:53;;;;;;;10.4;9.4;;;;;;;12.14;100;95206.93;;;;
2020/09/02 01:40:53;;;;;;;10.4;9.4;;;;;;;12.14;100;95206.93;;;;
2020/09/02 01:41:54;;;;;;;10.4;9.4;;;;;;;12.14;100;95206.93;;;;
2020/09/02 01:42:54;;;;;;;10.4;9.4;;;;;;;12.14;100;95206.93;;;;
2020/09/02 01:43:54;;;;;;;10.4;9.4;;;;;;;12.14;100;95206.93;;;;
2020/09/02 01:44:55;;;;;;;10.2;9.299998;;;;;;;12.09;100;95206.3;;;;
2020/09/02 01:45:57;;;;;;;10.2;9.299998;;;;;;;12.09;100;95206.3;;;;
2020/09/02 01:46:58;;;;;;;10.2;9.299998;;;;;;;12.09;100;95206.3;;;;
2020/09/02 01:47:58;;;;;;;10.2;9.299998;;;;;;;12.09;100;95206.3;;;;
2020/09/02 01:48:59;;;;;;;10.2;9.299998;;;;;;;12.09;100;95206.3;;;;
2020/09/02 01:49:59;;;;;;;10.2;9.299998;;;;;;;12.09;100;95206.3;;;;
2020/09/02 01:51:00;;;;;;;10.2;9.299998;;;;;;;12.09;100;95206.3;;;;
2020/09/02 01:52:00;;;;;;;10.2;9.299998;;;;;;;12.09;100;95206.3;;;;
2020/09/02 01:53:01;;;;;;;10.2;9.299998;;;;;;;12.09;100;95206.3;;;;
2020/09/02 01:54:02;;;;;;;10.2;9.299998;;;;;;;12.09;100;95206.3;;;;
2020/09/02 01:55:02;;;;;;;10.85;9.85;;;;;;;12;100;95206.98;;;;
2020/09/02 01:56:02;;;;;;;10.85;9.85;;;;;;;12;100;95206.98;;;;
2020/09/02 01:57:03;;;;;;;10.85;9.85;;;;;;;12;100;95206.98;;;;
2020/09/02 01:58:03;;;;;;;10.85;9.85;;;;;;;12;100;95206.98;;;;
2020/09/02 01:59:04;;;;;;;10.85;9.85;;;;;;;12;100;95206.98;;;;
2020/09/02 02:00:04;;;;;;;10.85;9.85;;;;;;;12;100;95206.98;;;;
2020/09/02 02:01:06;;;;;;;10.85;9.85;;;;;;;12;100;95206.98;;;;
2020/09/02 02:02:06;;;;;;;10.85;9.85;;;;;;;12;100;95206.98;;;;
2020/09/02 02:03:07;;;;;;;10.85;9.85;;;;;;;12;100;95206.98;;;;
2020/09/02 02:04:08;;;;;;;10.85;9.85;;;;;;;12;100;95206.98;;;;
2020/09/02 02:05:08;;;;;;;10.85;9.85;;;;;;;12;100;95206.98;;;;
2020/09/02 02:06:09;;;;;;;10.3;9.349999;;;;;;;11.88;100;95202.06;;;;
2020/09/02 02:07:09;;;;;;;10.3;9.349999;;;;;;;11.88;100;95202.06;;;;
2020/09/02 02:08:10;;;;;;;10.3;9.349999;;;;;;;11.88;100;95202.06;;;;
2020/09/02 02:09:10;;;;;;;10.3;9.349999;;;;;;;11.88;100;95202.06;;;;
2020/09/02 02:10:11;;;;;;;10.3;9.349999;;;;;;;11.88;100;95202.06;;;;
2020/09/02 02:11:11;;;;;;;10.3;9.349999;;;;;;;11.88;100;95202.06;;;;
2020/09/02 02:12:12;;;;;;;10.3;9.349999;;;;;;;11.88;100;95202.06;;;;
2020/09/02 02:13:12;;;;;;;10.3;9.349999;;;;;;;11.88;100;95202.06;;;;
2020/09/02 02:14:12;;;;;;;10.3;9.349999;;;;;;;11.88;100;95202.06;;;;
2020/09/02 02:15:13;;;;;;;10.3;9.349999;;;;;;;11.88;100;95202.06;;;;
2020/09/02 02:16:13;;;;;;;10.3;9.349999;;;;;;;11.88;100;95202.06;;;;
2020/09/02 02:17:14;;;;;;;11.25;10.25;;;;;;;11.82;100;95200.84;;;;
2020/09/02 02:18:14;;;;;;;11.25;10.25;;;;;;;11.82;100;95200.84;;;;
2020/09/02 02:19:15;;;;;;;11.25;10.25;;;;;;;11.82;100;95200.84;;;;
2020/09/02 02:20:15;;;;;;;11.25;10.25;;;;;;;11.82;100;95200.84;;;;
2020/09/02 02:21:16;;;;;;;11.25;10.25;;;;;;;11.82;100;95200.84;;;;
2020/09/02 02:22:16;;;;;;;11.25;10.25;;;;;;;11.82;100;95200.84;;;;
2020/09/02 02:23:17;;;;;;;11.25;10.25;;;;;;;11.82;100;95200.84;;;;
2020/09/02 02:24:17;;;;;;;11.25;10.25;;;;;;;11.82;100;95200.84;;;;
2020/09/02 02:25:18;;;;;;;11.25;10.25;;;;;;;11.82;100;95200.84;;;;
2020/09/02 02:26:18;;;;;;;11.25;10.25;;;;;;;11.82;100;95200.84;;;;
2020/09/02 02:27:18;;;;;;;12.7;11.5;;;;;;;11.74;100;95216.55;;;;
2020/09/02 02:28:19;;;;;;;12.7;11.5;;;;;;;11.74;100;95216.55;;;;
2020/09/02 02:29:19;;;;;;;12.7;11.5;;;;;;;11.74;100;95216.55;;;;
2020/09/02 02:30:20;;;;;;;12.7;11.5;;;;;;;11.74;100;95216.55;;;;
2020/09/02 02:31:20;;;;;;;12.7;11.5;;;;;;;11.74;100;95216.55;;;;
2020/09/02 02:32:21;;;;;;;12.7;11.5;;;;;;;11.74;100;95216.55;;;;
2020/09/02 02:33:21;;;;;;;12.7;11.5;;;;;;;11.74;100;95216.55;;;;
2020/09/02 02:34:22;;;;;;;12.7;11.5;;;;;;;11.74;100;95216.55;;;;
2020/09/02 02:35:22;;;;;;;12.7;11.5;;;;;;;11.74;100;95216.55;;;;
2020/09/02 02:36:23;;;;;;;12.7;11.5;;;;;;;11.74;100;95216.55;;;;
2020/09/02 02:37:23;;;;;;;12.7;11.5;;;;;;;11.74;100;95216.55;;;;
2020/09/02 02:38:23;;;;;;;12.55;11.3;;;;;;;11.71;100;95213.51;;;;
2020/09/02 02:39:24;;;;;;;12.55;11.3;;;;;;;11.71;100;95213.51;;;;
2020/09/02 02:40:24;;;;;;;12.55;11.3;;;;;;;11.71;100;95213.51;;;;
2020/09/02 02:41:25;;;;;;;12.55;11.3;;;;;;;11.71;100;95213.51;;;;
2020/09/02 02:42:25;;;;;;;12.55;11.3;;;;;;;11.71;100;95213.51;;;;
2020/09/02 02:43:26;;;;;;;12.55;11.3;;;;;;;11.71;100;95213.51;;;;
2020/09/02 02:44:26;;;;;;;12.55;11.3;;;;;;;11.71;100;95213.51;;;;
2020/09/02 02:45:27;;;;;;;12.55;11.3;;;;;;;11.71;100;95213.51;;;;
2020/09/02 02:46:27;;;;;;;12.55;11.3;;;;;;;11.71;100;95213.51;;;;
2020/09/02 02:47:28;;;;;;;12.55;11.3;;;;;;;11.71;100;95213.51;;;;
2020/09/02 02:48:28;;;;;;;14;12.4;;;;;;;11.69;100;95221.88;;;;
2020/09/02 02:49:29;;;;;;;14;12.4;;;;;;;11.69;100;95221.88;;;;
2020/09/02 02:50:29;;;;;;;14;12.4;;;;;;;11.69;100;95221.88;;;;
2020/09/02 02:51:29;;;;;;;14;12.4;;;;;;;11.69;100;95221.88;;;;
2020/09/02 02:52:30;;;;;;;14;12.4;;;;;;;11.69;100;95221.88;;;;
2020/09/02 02:53:30;;;;;;;14;12.4;;;;;;;11.69;100;95221.88;;;;
2020/09/02 02:54:31;;;;;;;14;12.4;;;;;;;11.69;100;95221.88;;;;
2020/09/02 02:55:31;;;;;;;14;12.4;;;;;;;11.69;100;95221.88;;;;
2020/09/02 02:56:32;;;;;;;14;12.4;;;;;;;11.69;100;95221.88;;;;
2020/09/02 02:57:32;;;;;;;14;12.4;;;;;;;11.69;100;95221.88;;;;
2020/09/02 02:58:33;;;;;;;14;12.4;;;;;;;11.69;100;95221.88;;;;
2020/09/02 02:59:33;;;;;;;14.55;13.1;;;;;;;11.71;100;95225.55;;;;
2020/09/02 03:00:33;;;;;;;14.55;13.1;;;;;;;11.71;100;95225.55;;;;
2020/09/02 03:01:34;;;;;;;14.55;13.1;;;;;;;11.71;100;95225.55;;;;
2020/09/02 03:02:34;;;;;;;14.55;13.1;;;;;;;11.71;100;95225.55;;;;
2020/09/02 03:03:35;;;;;;;14.55;13.1;;;;;;;11.71;100;95225.55;;;;
2020/09/02 03:04:36;;;;;;;14.55;13.1;;;;;;;11.71;100;95225.55;;;;
2020/09/02 03:05:36;;;;;;;14.55;13.1;;;;;;;11.71;100;95225.55;;;;
2020/09/02 03:06:36;;;;;;;14.55;13.1;;;;;;;11.71;100;95225.55;;;;
2020/09/02 03:07:37;;;;;;;14.55;13.1;;;;;;;11.71;100;95225.55;;;;
2020/09/02 03:08:38;;;;;;;14.55;13.1;;;;;;;11.71;100;95225.55;;;;
2020/09/02 03:09:38;;;;;;;14.55;13.1;;;;;;;11.71;100;95225.55;;;;
2020/09/02 03:10:39;;;;;;;15;13.4;;;;;;;11.71;100;95210.82;;;;
2020/09/02 03:11:39;;;;;;;15;13.4;;;;;;;11.71;100;95210.82;;;;
2020/09/02 03:12:40;;;;;;;15;13.4;;;;;;;11.71;100;95210.82;;;;
2020/09/02 03:13:40;;;;;;;15;13.4;;;;;;;11.71;100;95210.82;;;;
2020/09/02 03:14:40;;;;;;;15;13.4;;;;;;;11.71;100;95210.82;;;;
2020/09/02 03:15:41;;;;;;;15;13.4;;;;;;;11.71;100;95210.82;;;;
2020/09/02 03:16:51;;;;;;;15;13.4;;;;;;;11.71;100;95210.82;;;;
2020/09/02 03:17:51;;;;;;;15;13.4;;;;;;;11.71;100;95210.82;;;;
2020/09/02 03:18:52;;;;;;;15;13.4;;;;;;;11.71;100;95210.82;;;;
2020/09/02 03:19:52;;;;;;;15;13.4;;;;;;;11.71;100;95210.82;;;;
2020/09/02 03:20:53;;;;;;;16.35;14.15;;;;;;;11.65;100;95211.25;;;;
2020/09/02 03:21:53;;;;;;;16.35;14.15;;;;;;;11.65;100;95211.25;;;;
2020/09/02 03:22:53;;;;;;;16.35;14.15;;;;;;;11.65;100;95211.25;;;;
2020/09/02 03:23:54;;;;;;;16.35;14.15;;;;;;;11.65;100;95211.25;;;;
2020/09/02 03:24:54;;;;;;;16.35;14.15;;;;;;;11.65;100;95211.25;;;;
2020/09/02 03:25:55;;;;;;;16.35;14.15;;;;;;;11.65;100;95211.25;;;;
2020/09/02 03:26:55;;;;;;;16.35;14.15;;;;;;;11.65;100;95211.25;;;;
2020/09/02 03:27:56;;;;;;;16.35;14.15;;;;;;;11.65;100;95211.25;;;;
2020/09/02 03:28:56;;;;;;;16.35;14.15;;;;;;;11.65;100;95211.25;;;;
2020/09/02 03:29:57;;;;;;;16.35;14.15;;;;;;;11.65;100;95211.25;;;;
2020/09/02 03:30:57;;;;;;;16.35;14.15;;;;;;;11.65;100;95211.25;;;;
2020/09/02 03:31:57;;;;;;;15.35;13.75;;;;;;;11.6;100;95207.09;;;;
2020/09/02 03:32:58;;;;;;;15.35;13.75;;;;;;;11.6;100;95207.09;;;;
2020/09/02 03:33:58;;;;;;;15.35;13.75;;;;;;;11.6;100;95207.09;;;;
2020/09/02 03:35:00;;;;;;;15.35;13.75;;;;;;;11.6;100;95207.09;;;;
2020/09/02 03:36:00;;;;;;;15.35;13.75;;;;;;;11.6;100;95207.09;;;;
2020/09/02 03:37:00;;;;;;;15.35;13.75;;;;;;;11.6;100;95207.09;;;;
2020/09/02 03:38:01;;;;;;;15.35;13.75;;;;;;;11.6;100;95207.09;;;;
2020/09/02 03:39:01;;;;;;;15.35;13.75;;;;;;;11.6;100;95207.09;;;;
2020/09/02 03:40:02;;;;;;;15.35;13.75;;;;;;;11.6;100;95207.09;;;;
2020/09/02 03:41:02;;;;;;;15.35;13.75;;;;;;;11.6;100;95207.09;;;;
2020/09/02 03:42:03;;;;;;;13.3;11.9;;;;;;;11.38;100;95220.48;;;;
2020/09/02 03:43:04;;;;;;;13.3;11.9;;;;;;;11.38;100;95220.48;;;;
2020/09/02 03:44:04;;;;;;;13.3;11.9;;;;;;;11.38;100;95220.48;;;;
2020/09/02 03:45:05;;;;;;;13.3;11.9;;;;;;;11.38;100;95220.48;;;;
2020/09/02 03:46:05;;;;;;;13.3;11.9;;;;;;;11.38;100;95220.48;;;;
2020/09/02 03:47:06;;;;;;;13.3;11.9;;;;;;;11.38;100;95220.48;;;;
2020/09/02 03:48:07;;;;;;;13.3;11.9;;;;;;;11.38;100;95220.48;;;;
2020/09/02 03:49:07;;;;;;;13.3;11.9;;;;;;;11.38;100;95220.48;;;;
2020/09/02 03:50:08;;;;;;;13.3;11.9;;;;;;;11.38;100;95220.48;;;;
2020/09/02 03:51:08;;;;;;;13.3;11.9;;;;;;;11.38;100;95220.48;;;;
2020/09/02 03:52:08;;;;;;;13.3;11.9;;;;;;;11.38;100;95220.48;;;;
2020/09/02 03:53:09;;;;;;;15.45;13.2;;;;;;;11.22;100;95234.88;;;;
2020/09/02 03:54:10;;;;;;;15.45;13.2;;;;;;;11.22;100;95234.88;;;;
2020/09/02 03:55:10;;;;;;;15.45;13.2;;;;;;;11.22;100;95234.88;;;;
2020/09/02 03:56:11;;;;;;;15.45;13.2;;;;;;;11.22;100;95234.88;;;;
2020/09/02 03:57:12;;;;;;;15.45;13.2;;;;;;;11.22;100;95234.88;;;;
2020/09/02 03:58:14;;;;;;;15.45;13.2;;;;;;;11.22;100;95234.88;;;;
2020/09/02 03:59:31;;;;;;;15.45;13.2;;;;;;;11.22;100;95234.88;;;;
2020/09/02 04:00:31;;;;;;;15.45;13.2;;;;;;;11.22;100;95234.88;;;;
2020/09/02 04:01:32;;;;;;;15.45;13.2;;;;;;;11.22;100;95234.88;;;;
2020/09/02 04:02:32;;;;;;;15.45;13.2;;;;;;;11.22;100;95234.88;;;;
2020/09/02 04:03:32;;;;;;;17.2;14.9;;;;;;;11.31;100;95227.92;;;;
2020/09/02 04:04:33;;;;;;;17.2;14.9;;;;;;;11.31;100;95227.92;;;;
2020/09/02 04:05:34;;;;;;;17.2;14.9;;;;;;;11.31;100;95227.92;;;;
2020/09/02 04:06:34;;;;;;;17.2;14.9;;;;;;;11.31;100;95227.92;;;;
2020/09/02 04:07:43;;;;;;;17.2;14.9;;;;;;;11.31;100;95227.92;;;;
2020/09/02 04:08:43;;;;;;;17.2;14.9;;;;;;;11.31;100;95227.92;;;;
2020/09/02 04:09:50;;;;;;;17.2;14.9;;;;;;;11.31;100;95227.92;;;;
2020/09/02 04:10:50;;;;;;;17.2;14.9;;;;;;;11.31;100;95227.92;;;;
2020/09/02 04:11:56;;;;;;;17.2;14.9;;;;;;;11.31;100;95227.92;;;;
2020/09/02 04:13:05;;;;;;;17.2;14.9;;;;;;;11.31;100;95227.92;;;;
2020/09/02 04:14:13;;;;;;;23.75;17.95;;;;;;;11.43;100;95235.44;;;;
2020/09/02 04:15:13;;;;;;;23.75;17.95;;;;;;;11.43;100;95235.44;;;;
2020/09/02 04:16:15;;;;;;;23.75;17.95;;;;;;;11.43;100;95235.44;;;;
2020/09/02 04:17:15;;;;;;;23.75;17.95;;;;;;;11.43;100;95235.44;;;;
2020/09/02 04:18:16;;;;;;;23.75;17.95;;;;;;;11.43;100;95235.44;;;;
2020/09/02 04:19:17;;;;;;;23.75;17.95;;;;;;;11.43;100;95235.44;;;;
2020/09/02 04:20:18;;;;;;;23.75;17.95;;;;;;;11.43;100;95235.44;;;;
2020/09/02 04:21:19;;;;;;;23.75;17.95;;;;;;;11.43;100;95235.44;;;;
2020/09/02 04:22:20;;;;;;;23.75;17.95;;;;;;;11.43;100;95235.44;;;;
2020/09/02 04:23:28;;;;;;;23.75;17.95;;;;;;;11.43;100;95235.44;;;;
2020/09/02 04:24:32;;;;;;;23.15;18.45;;;;;;;11.54;100;95235.92;;;;
2020/09/02 04:25:33;;;;;;;23.15;18.45;;;;;;;11.54;100;95235.92;;;;
2020/09/02 04:26:33;;;;;;;23.15;18.45;;;;;;;11.54;100;95235.92;;;;
2020/09/02 04:27:34;;;;;;;23.15;18.45;;;;;;;11.54;100;95235.92;;;;
2020/09/02 04:28:35;;;;;;;23.15;18.45;;;;;;;11.54;100;95235.92;;;;
2020/09/02 04:29:36;;;;;;;23.15;18.45;;;;;;;11.54;100;95235.92;;;;
2020/09/02 04:30:36;;;;;;;23.15;18.45;;;;;;;11.54;100;95235.92;;;;
2020/09/02 04:31:36;;;;;;;23.15;18.45;;;;;;;11.54;100;95235.92;;;;
2020/09/02 04:32:41;;;;;;;23.15;18.45;;;;;;;11.54;100;95235.92;;;;
2020/09/02 04:33:42;;;;;;;23.15;18.45;;;;;;;11.54;100;95235.92;;;;
2020/09/02 04:34:45;;;;;;;23.15;18.45;;;;;;;11.54;100;95235.92;;;;
2020/09/02 04:35:45;;;;;;;25.55;18.8;;;;;;;11.63;100;95238.22;;;;
2020/09/02 04:36:47;;;;;;;25.55;18.8;;;;;;;11.63;100;95238.22;;;;
2020/09/02 04:37:48;;;;;;;25.55;18.8;;;;;;;11.63;100;95238.22;;;;
2020/09/02 04:38:51;;;;;;;25.55;18.8;;;;;;;11.63;100;95238.22;;;;
2020/09/02 04:39:52;;;;;;;25.55;18.8;;;;;;;11.63;100;95238.22;;;;
2020/09/02 04:41:00;;;;;;;25.55;18.8;;;;;;;11.63;100;95238.22;;;;
2020/09/02 04:42:01;;;;;;;25.55;18.8;;;;;;;11.63;100;95238.22;;;;
2020/09/02 04:43:05;;;;;;;25.55;18.8;;;;;;;11.63;100;95238.22;;;;
2020/09/02 04:44:06;;;;;;;25.55;18.8;;;;;;;11.63;100;95238.22;;;;
2020/09/02 04:45:10;;;;;;;25.55;18.8;;;;;;;11.63;100;95238.22;;;;
2020/09/02 04:46:15;;;;;;;25.15;18.55;;;;;;;11.61;100;95243.45;;;;
2020/09/02 04:47:15;;;;;;;25.15;18.55;;;;;;;11.61;100;95243.45;;;;
2020/09/02 04:48:19;;;;;;;25.15;18.55;;;;;;;11.61;100;95243.45;;;;
2020/09/02 04:49:20;;;;;;;25.15;18.55;;;;;;;11.61;100;95243.45;;;;
2020/09/02 04:50:21;;;;;;;25.15;18.55;;;;;;;11.61;100;95243.45;;;;
2020/09/02 04:51:22;;;;;;;25.15;18.55;;;;;;;11.61;100;95243.45;;;;
2020/09/02 04:52:22;;;;;;;25.15;18.55;;;;;;;11.61;100;95243.45;;;;
2020/09/02 04:53:23;;;;;;;25.15;18.55;;;;;;;11.61;100;95243.45;;;;
2020/09/02 04:54:23;;;;;;;25.15;18.55;;;;;;;11.61;100;95243.45;;;;
2020/09/02 04:55:25;;;;;;;25.15;18.55;;;;;;;11.61;100;95243.45;;;;
2020/09/02 04:56:26;;;;;;;25.15;18.55;;;;;;;11.61;100;95243.45;;;;
2020/09/02 04:57:26;;;;;;;27.75;19.65;;;;;;;11.6;100;95244.39;;;;
2020/09/02 04:58:27;;;;;;;27.75;19.65;;;;;;;11.6;100;95244.39;;;;
2020/09/02 04:59:29;;;;;;;27.75;19.65;;;;;;;11.6;100;95244.39;;;;
2020/09/02 05:00:29;;;;;;;27.75;19.65;;;;;;;11.6;100;95244.39;;;;
2020/09/02 05:01:29;;;;;;;27.75;19.65;;;;;;;11.6;100;95244.39;;;;
2020/09/02 05:02:32;;;;;;;27.75;19.65;;;;;;;11.6;100;95244.39;;;;
2020/09/02 05:03:32;;;;;;;27.75;19.65;;;;;;;11.6;100;95244.39;;;;
2020/09/02 05:04:32;;;;;;;27.75;19.65;;;;;;;11.6;100;95244.39;;;;
2020/09/02 05:05:33;;;;;;;27.75;19.65;;;;;;;11.6;100;95244.39;;;;
2020/09/02 05:06:33;;;;;;;27.75;19.65;;;;;;;11.6;100;95244.39;;;;
2020/09/02 05:07:34;;;;;;;31.05;21.6;;;;;;;11.66;100;95250.75;;;;
2020/09/02 05:08:35;;;;;;;31.05;21.6;;;;;;;11.66;100;95250.75;;;;
2020/09/02 05:09:35;;;;;;;31.05;21.6;;;;;;;11.66;100;95250.75;;;;
2020/09/02 05:10:36;;;;;;;31.05;21.6;;;;;;;11.66;100;95250.75;;;;
2020/09/02 05:11:36;;;;;;;31.05;21.6;;;;;;;11.66;100;95250.75;;;;
2020/09/02 05:12:37;;;;;;;31.05;21.6;;;;;;;11.66;100;95250.75;;;;
2020/09/02 05:13:37;;;;;;;31.05;21.6;;;;;;;11.66;100;95250.75;;;;
2020/09/02 05:14:38;;;;;;;31.05;21.6;;;;;;;11.66;100;95250.75;;;;
2020/09/02 05:15:38;;;;;;;31.05;21.6;;;;;;;11.66;100;95250.75;;;;
2020/09/02 05:16:39;;;;;;;31.05;21.6;;;;;;;11.66;100;95250.75;;;;
2020/09/02 05:17:39;;;;;;;31.05;21.6;;;;;;;11.66;100;95250.75;;;;
2020/09/02 05:18:40;;;;;;;30.9;21.3;;;;;;;11.86;100;95261.1;;;;
2020/09/02 05:19:40;;;;;;;30.9;21.3;;;;;;;11.86;100;95261.1;;;;
2020/09/02 05:20:40;;;;;;;30.9;21.3;;;;;;;11.86;100;95261.1;;;;
2020/09/02 05:21:41;;;;;;;30.9;21.3;;;;;;;11.86;100;95261.1;;;;
2020/09/02 05:22:41;;;;;;;30.9;21.3;;;;;;;11.86;100;95261.1;;;;
2020/09/02 05:23:42;;;;;;;30.9;21.3;;;;;;;11.86;100;95261.1;;;;
2020/09/02 05:24:43;;;;;;;30.9;21.3;;;;;;;11.86;100;95261.1;;;;
2020/09/02 05:25:43;;;;;;;30.9;21.3;;;;;;;11.86;100;95261.1;;;;
2020/09/02 05:26:44;;;;;;;30.9;21.3;;;;;;;11.86;100;95261.1;;;;
2020/09/02 05:27:44;;;;;;;30.9;21.3;;;;;;;11.86;100;95261.1;;;;
2020/09/02 05:28:45;;;;;;;23.35;18.15;;;;;;;12.12;100;95265.89;;;;
2020/09/02 05:29:45;;;;;;;23.35;18.15;;;;;;;12.12;100;95265.89;;;;
2020/09/02 05:30:46;;;;;;;23.35;18.15;;;;;;;12.12;100;95265.89;;;;
2020/09/02 05:31:46;;;;;;;23.35;18.15;;;;;;;12.12;100;95265.89;;;;
2020/09/02 05:32:47;;;;;;;23.35;18.15;;;;;;;12.12;100;95265.89;;;;
2020/09/02 05:33:47;;;;;;;23.35;18.15;;;;;;;12.12;100;95265.89;;;;
2020/09/02 05:34:47;;;;;;;23.35;18.15;;;;;;;12.12;100;95265.89;;;;
2020/09/02 05:35:48;;;;;;;23.35;18.15;;;;;;;12.12;100;95265.89;;;;
2020/09/02 05:36:49;;;;;;;23.35;18.15;;;;;;;12.12;100;95265.89;;;;
2020/09/02 05:37:49;;;;;;;23.35;18.15;;;;;;;12.12;100;95265.89;;;;
2020/09/02 05:38:49;;;;;;;23.35;18.15;;;;;;;12.12;100;95265.89;;;;
2020/09/02 05:39:50;;;;;;;19.25;15.5;;;;;;;12.37;100;95271.19;;;;
2020/09/02 05:40:50;;;;;;;19.25;15.5;;;;;;;12.37;100;95271.19;;;;
2020/09/02 05:41:51;;;;;;;19.25;15.5;;;;;;;12.37;100;95271.19;;;;
2020/09/02 05:42:51;;;;;;;19.25;15.5;;;;;;;12.37;100;95271.19;;;;
2020/09/02 05:43:52;;;;;;;19.25;15.5;;;;;;;12.37;100;95271.19;;;;
2020/09/02 05:44:52;;;;;;;19.25;15.5;;;;;;;12.37;100;95271.19;;;;
2020/09/02 05:45:53;;;;;;;19.25;15.5;;;;;;;12.37;100;95271.19;;;;
2020/09/02 05:46:53;;;;;;;19.25;15.5;;;;;;;12.37;100;95271.19;;;;
2020/09/02 05:47:53;;;;;;;19.25;15.5;;;;;;;12.37;100;95271.19;;;;
2020/09/02 05:48:54;;;;;;;19.25;15.5;;;;;;;12.37;100;95271.19;;;;
2020/09/02 05:49:54;;;;;;;24.55;18.55;;;;;;;12.62;100;95266.69;;;;
2020/09/02 05:50:55;;;;;;;24.55;18.55;;;;;;;12.62;100;95266.69;;;;
2020/09/02 05:51:55;;;;;;;24.55;18.55;;;;;;;12.62;100;95266.69;;;;
2020/09/02 05:52:56;;;;;;;24.55;18.55;;;;;;;12.62;100;95266.69;;;;
2020/09/02 05:53:56;;;;;;;24.55;18.55;;;;;;;12.62;100;95266.69;;;;
2020/09/02 05:54:57;;;;;;;24.55;18.55;;;;;;;12.62;100;95266.69;;;;
2020/09/02 05:55:57;;;;;;;24.55;18.55;;;;;;;12.62;100;95266.69;;;;
2020/09/02 05:56:58;;;;;;;24.55;18.55;;;;;;;12.62;100;95266.69;;;;
2020/09/02 05:57:58;;;;;;;24.55;18.55;;;;;;;12.62;100;95266.69;;;;
2020/09/02 05:58:58;;;;;;;24.55;18.55;;;;;;;12.62;100;95266.69;;;;
2020/09/02 05:59:59;;;;;;;24.55;18.55;;;;;;;12.62;100;95266.69;;;;
2020/09/02 06:00:59;;;;;;;18.6;16.3;;;;;;;12.87;100;95268.92;;;;
2020/09/02 06:02:00;;;;;;;18.6;16.3;;;;;;;12.87;100;95268.92;;;;
2020/09/02 06:03:00;;;;;;;18.6;16.3;;;;;;;12.87;100;95268.92;;;;
2020/09/02 06:04:01;;;;;;;18.6;16.3;;;;;;;12.87;100;95268.92;;;;
2020/09/02 06:05:01;;;;;;;18.6;16.3;;;;;;;12.87;100;95268.92;;;;
2020/09/02 06:06:02;;;;;;;18.6;16.3;;;;;;;12.87;100;95268.92;;;;
2020/09/02 06:07:02;;;;;;;18.6;16.3;;;;;;;12.87;100;95268.92;;;;
2020/09/02 06:08:03;;;;;;;18.6;16.3;;;;;;;12.87;100;95268.92;;;;
2020/09/02 06:09:03;;;;;;;18.6;16.3;;;;;;;12.87;100;95268.92;;;;
2020/09/02 06:10:05;;;;;;;18.6;16.3;;;;;;;12.87;100;95268.92;;;;
2020/09/02 06:11:06;;;;;;;18.6;16.3;;;;;;;12.87;100;95268.92;;;;